Time;durP1;ratioP1;P1;durP2;ratioP2;P2;SDS_P1;SDS_P2;PMS_P1;PMS_P2;Temp;Humidity;BMP_temperature;BMP_pressure;BME280_temperature;BME280_humidity;BME280_pressure;Samples;Min_cycle;Max_cycle;Signal;HPM_P1;HPM_P2
2022/11/06 00:01:22;;;;;;;15.10;11.50;;;7.90;99.90;;;;;;4995990;28;20404;-71
2022/11/06 00:03:51;;;;;;;17.93;13.90;;;7.90;99.90;;;;;;4995708;28;20458;-70
2022/11/06 00:09:05;;;;;;;15.83;12.03;;;7.80;99.90;;;;;;4996208;28;20384;-72
2022/11/06 00:11:30;;;;;;;14.27;12.77;;;7.80;99.90;;;;;;4996081;28;20938;-71
2022/11/06 00:13:56;;;;;;;12.37;11.10;;;7.80;99.90;;;;;;4995457;28;20595;-71
2022/11/06 00:16:22;;;;;;;14.83;13.23;;;7.80;99.90;;;;;;4995720;28;20178;-72
2022/11/06 00:18:48;;;;;;;12.90;11.47;;;7.80;99.90;;;;;;4995566;28;20463;-71
2022/11/06 00:21:20;;;;;;;12.53;11.27;;;7.80;99.90;;;;;;4993862;28;20254;-71
2022/11/06 00:23:46;;;;;;;11.87;10.73;;;7.90;99.90;;;;;;4994070;28;20433;-70
2022/11/06 00:26:14;;;;;;;13.20;11.77;;;7.90;99.90;;;;;;4995706;28;20417;-72
2022/11/06 00:28:41;;;;;;;13.17;10.60;;;7.80;99.90;;;;;;4994895;28;20420;-70
2022/11/06 00:31:10;;;;;;;11.90;10.70;;;7.90;99.90;;;;;;4995565;28;20476;-71
2022/11/06 00:33:35;;;;;;;13.40;11.40;;;7.80;99.90;;;;;;4993788;28;20512;-71
2022/11/06 00:36:03;;;;;;;12.33;11.03;;;7.70;99.90;;;;;;4994572;28;20457;-71
2022/11/06 00:38:29;;;;;;;13.33;12.00;;;7.80;99.90;;;;;;4993504;28;20591;-71
2022/11/06 00:40:54;;;;;;;12.50;11.30;;;7.70;99.90;;;;;;4995059;28;20423;-69
2022/11/06 00:43:20;;;;;;;14.20;11.50;;;7.70;99.90;;;;;;4993778;28;20197;-72
2022/11/06 00:45:45;;;;;;;12.63;11.37;;;7.70;99.90;;;;;;4994945;28;20172;-70
2022/11/06 00:48:11;;;;;;;14.73;11.90;;;7.70;99.90;;;;;;4994968;28;20174;-71
2022/11/06 00:50:36;;;;;;;18.07;13.30;;;7.60;99.90;;;;;;4994258;28;20177;-70
2022/11/06 00:53:02;;;;;;;12.67;11.47;;;7.50;99.90;;;;;;4993962;28;20676;-71
2022/11/06 00:55:27;;;;;;;13.80;10.93;;;7.50;99.90;;;;;;4994991;28;20182;-71
2022/11/06 00:57:53;;;;;;;11.63;10.53;;;7.50;99.90;;;;;;4994804;28;20172;-71
2022/11/06 01:00:19;;;;;;;13.60;11.80;;;7.50;99.90;;;;;;4995008;28;20177;-71
2022/11/06 01:02:46;;;;;;;19.50;12.30;;;7.50;99.90;;;;;;4994840;28;20180;-71
2022/11/06 01:05:12;;;;;;;13.83;12.40;;;7.50;99.90;;;;;;4994615;28;20434;-71
2022/11/06 01:07:38;;;;;;;14.10;11.57;;;7.40;99.90;;;;;;4994053;28;20492;-71
2022/11/06 01:10:05;;;;;;;12.93;10.70;;;7.40;99.90;;;;;;4993178;28;20507;-73
2022/11/06 01:12:32;;;;;;;13.70;12.30;;;7.30;99.90;;;;;;4994305;28;20448;-71
2022/11/06 01:14:58;;;;;;;13.30;11.87;;;7.20;99.90;;;;;;4994309;28;20510;-71
2022/11/06 01:17:23;;;;;;;13.20;9.90;;;7.10;99.90;;;;;;4994459;28;20405;-71
2022/11/06 01:19:49;;;;;;;13.20;11.90;;;7.20;99.90;;;;;;4994353;28;20182;-70
2022/11/06 01:22:15;;;;;;;13.90;11.60;;;7.20;99.90;;;;;;4993878;28;20177;-72
2022/11/06 01:24:40;;;;;;;12.93;11.53;;;7.10;99.90;;;;;;4994293;28;20192;-71
2022/11/06 01:27:06;;;;;;;13.37;11.97;;;7.10;99.90;;;;;;4994385;28;20169;-71
2022/11/06 01:29:32;;;;;;;15.47;13.03;;;7.00;99.90;;;;;;4994746;28;20642;-71
2022/11/06 01:31:57;;;;;;;12.43;11.13;;;7.00;99.90;;;;;;4994359;28;20197;-71
2022/11/06 01:34:23;;;;;;;15.87;12.20;;;7.00;99.90;;;;;;4992681;28;20474;-71
2022/11/06 01:36:49;;;;;;;11.07;10.00;;;7.00;99.90;;;;;;4992898;28;20774;-70
2022/11/06 01:39:15;;;;;;;13.10;11.47;;;6.90;99.90;;;;;;4994099;28;20165;-70
2022/11/06 01:41:49;;;;;;;13.77;12.20;;;6.90;99.90;;;;;;4994819;28;20256;-71
2022/11/06 01:44:39;;;;;;;12.53;10.63;;;6.90;99.90;;;;;;4994292;28;20688;-71
2022/11/06 01:47:19;;;;;;;14.90;10.73;;;6.90;99.90;;;;;;4993964;28;20403;-72
2022/11/06 01:49:45;;;;;;;12.80;10.60;;;6.90;99.90;;;;;;4994232;28;20750;-70
2022/11/06 01:52:13;;;;;;;14.80;13.00;;;6.90;99.90;;;;;;4993268;28;20463;-71
2022/11/06 01:54:43;;;;;;;13.77;11.50;;;6.80;99.90;;;;;;4993665;28;20450;-71
2022/11/06 01:57:09;;;;;;;14.83;11.50;;;6.80;99.90;;;;;;4994105;28;20397;-70
2022/11/06 01:59:41;;;;;;;11.70;10.40;;;6.80;99.90;;;;;;4993725;28;20408;-70
2022/11/06 02:02:06;;;;;;;12.13;10.83;;;6.70;99.90;;;;;;4993840;28;20392;-71
2022/11/06 02:04:36;;;;;;;14.30;10.80;;;6.70;99.90;;;;;;4993566;28;20442;-70
2022/11/06 02:07:02;;;;;;;13.23;9.97;;;6.60;99.90;;;;;;4993078;28;20694;-72
2022/11/06 02:09:30;;;;;;;12.03;9.80;;;6.50;99.90;;;;;;4994242;28;20432;-70
2022/11/06 02:12:01;;;;;;;11.07;9.97;;;6.50;99.90;;;;;;4993896;28;20451;-71
2022/11/06 02:14:27;;;;;;;11.07;9.93;;;6.50;99.90;;;;;;4992360;28;20499;-72
2022/11/06 02:17:34;;;;;;;9.80;8.77;;;6.60;99.90;;;;;;4992645;28;20938;-72
2022/11/06 02:20:18;;;;;;;12.83;11.33;;;6.60;99.90;;;;;;4993285;28;20251;-71
2022/11/06 02:23:08;;;;;;;13.77;11.30;;;6.50;99.90;;;;;;4993786;28;20392;-71
2022/11/06 02:25:56;;;;;;;15.90;11.93;;;6.40;99.90;;;;;;4993879;28;20411;-71
2022/11/06 02:28:28;;;;;;;10.50;8.73;;;6.30;99.90;;;;;;4993051;28;20418;-70
2022/11/06 02:30:57;;;;;;;9.80;8.80;;;6.30;99.90;;;;;;4993037;28;20446;-71
2022/11/06 02:33:35;;;;;;;11.27;8.97;;;6.20;99.90;;;;;;4993002;28;20968;-71
2022/11/06 02:36:06;;;;;;;12.17;10.03;;;6.30;99.90;;;;;;4992629;28;20388;-71
2022/11/06 02:38:39;;;;;;;13.40;11.50;;;6.20;99.90;;;;;;4993287;28;20380;-72
2022/11/06 02:41:09;;;;;;;10.30;9.37;;;6.30;99.90;;;;;;4994160;28;20389;-72
2022/11/06 02:43:38;;;;;;;11.73;10.53;;;6.40;99.90;;;;;;4994333;28;20797;-70
2022/11/06 02:46:23;;;;;;;14.40;11.43;;;6.40;99.90;;;;;;4991258;28;20422;-72
2022/11/06 02:48:55;;;;;;;9.53;8.13;;;6.40;99.90;;;;;;4974056;28;20408;-72
2022/11/06 02:51:26;;;;;;;9.80;8.80;;;6.40;99.90;;;;;;4981760;28;20819;-72
2022/11/06 02:53:53;;;;;;;11.50;9.50;;;6.40;99.90;;;;;;4993543;28;20419;-71
2022/11/06 02:56:23;;;;;;;10.57;9.30;;;6.30;99.90;;;;;;4993526;28;20450;-71
2022/11/06 02:59:01;;;;;;;9.37;8.37;;;6.20;99.90;;;;;;4993797;28;20831;-71
2022/11/06 03:01:33;;;;;;;8.80;7.87;;;6.20;99.90;;;;;;4993654;28;20446;-71
2022/11/06 03:04:17;;;;;;;10.50;8.67;;;6.20;99.90;;;;;;4993242;28;20432;-71
2022/11/06 03:06:58;;;;;;;11.53;10.23;;;6.30;99.90;;;;;;4993101;28;20422;-71
2022/11/06 03:09:30;;;;;;;9.80;8.77;;;6.30;99.90;;;;;;4993675;28;20492;-70
2022/11/06 03:12:07;;;;;;;12.73;10.90;;;6.30;99.90;;;;;;4993530;28;20527;-71
2022/11/06 03:14:36;;;;;;;14.73;11.10;;;6.30;99.90;;;;;;5033829;23;20489;-76
2022/11/06 03:17:19;;;;;;;12.77;11.00;;;6.30;99.90;;;;;;5035113;28;20930;-76
2022/11/06 03:19:47;;;;;;;13.53;10.43;;;6.30;99.90;;;;;;5029954;28;20435;-76
2022/11/06 03:22:36;;;;;;;10.23;9.13;;;6.20;99.90;;;;;;5015730;28;20778;-76
2022/11/06 03:25:34;;;;;;;11.87;9.50;;;6.20;99.90;;;;;;5014670;28;20438;-76
2022/11/06 03:28:31;;;;;;;13.80;10.70;;;6.20;99.90;;;;;;5015177;28;20846;-76
2022/11/06 03:31:04;;;;;;;10.83;9.73;;;6.10;99.90;;;;;;5007613;28;20459;-76
2022/11/06 03:33:29;;;;;;;16.87;10.90;;;6.00;99.90;;;;;;5015614;28;20450;-76
2022/11/06 03:36:05;;;;;;;12.20;10.47;;;6.10;99.90;;;;;;5015019;28;20896;-76
2022/11/06 03:38:42;;;;;;;8.93;7.90;;;6.00;99.90;;;;;;5015586;28;20693;-76
2022/11/06 03:41:17;;;;;;;10.60;9.53;;;6.10;99.90;;;;;;5016057;28;20865;-76
2022/11/06 03:43:47;;;;;;;12.27;10.13;;;6.10;99.90;;;;;;5015756;28;20941;-76
2022/11/06 03:46:18;;;;;;;14.93;11.27;;;6.10;99.90;;;;;;5015877;28;20485;-74
2022/11/06 03:48:55;;;;;;;17.20;11.50;;;6.10;99.90;;;;;;5016092;28;20555;-76
2022/11/06 03:51:41;;;;;;;12.30;10.83;;;6.10;99.90;;;;;;5015500;28;20449;-75
2022/11/06 03:54:20;;;;;;;11.33;9.80;;;6.10;99.90;;;;;;5014884;28;21013;-75
2022/11/06 03:56:59;;;;;;;15.73;12.30;;;6.00;99.90;;;;;;5016271;28;20750;-76
2022/11/06 03:59:30;;;;;;;13.40;10.17;;;6.00;99.90;;;;;;5016984;28;20438;-76
2022/11/06 04:01:58;;;;;;;12.00;9.90;;;6.00;99.90;;;;;;5016901;28;20421;-74
2022/11/06 04:04:29;;;;;;;13.03;11.00;;;5.90;99.90;;;;;;5018988;28;20451;-76
2022/11/06 04:07:26;;;;;;;13.90;11.40;;;5.90;99.90;;;;;;5018811;28;20434;-76
2022/11/06 04:15:40;;;;;;;10.77;9.77;;;5.80;99.90;;;;;;5016285;28;20936;-76
2022/11/06 04:18:13;;;;;;;13.40;12.00;;;5.80;99.90;;;;;;5015902;28;20617;-76
2022/11/06 04:27:09;;;;;;;13.40;12.00;;;5.70;99.90;;;;;;5015876;28;20766;-76
2022/11/06 04:29:42;;;;;;;12.80;10.53;;;5.70;99.90;;;;;;5015202;28;20746;-76
2022/11/06 04:32:13;;;;;;;12.20;10.90;;;5.70;99.90;;;;;;5015446;28;20435;-75
2022/11/06 04:34:54;;;;;;;11.87;10.40;;;5.70;99.90;;;;;;5015126;28;20790;-75
2022/11/06 04:37:31;;;;;;;12.27;11.00;;;5.70;99.90;;;;;;5013827;28;20450;-76
2022/11/06 04:40:30;;;;;;;12.17;10.97;;;5.70;99.90;;;;;;5015211;28;20407;-76
2022/11/06 04:43:19;;;;;;;10.97;9.87;;;5.60;99.90;;;;;;5014951;28;20928;-76
2022/11/06 04:45:52;;;;;;;12.20;10.53;;;5.60;99.90;;;;;;5015301;28;20384;-76
2022/11/06 04:48:18;;;;;;;10.03;9.10;;;5.60;99.90;;;;;;5015106;28;20446;-77
2022/11/06 04:50:49;;;;;;;14.37;12.97;;;5.60;99.90;;;;;;5014590;28;20845;-75
2022/11/06 04:53:17;;;;;;;11.47;10.33;;;5.60;99.90;;;;;;5014432;28;20474;-75
2022/11/06 04:55:59;;;;;;;13.73;12.43;;;5.70;99.90;;;;;;5014948;28;20407;-75
2022/11/06 04:58:25;;;;;;;12.43;10.47;;;5.60;99.90;;;;;;5013986;28;20407;-76
2022/11/06 05:00:51;;;;;;;10.43;9.53;;;5.60;99.90;;;;;;5013310;28;20498;-75
2022/11/06 05:03:17;;;;;;;15.23;13.73;;;5.50;99.90;;;;;;5014346;28;20602;-75
2022/11/06 05:05:43;;;;;;;14.30;13.00;;;5.40;99.90;;;;;;5014805;28;20259;-75
2022/11/06 05:08:14;;;;;;;14.70;12.43;;;5.30;99.90;;;;;;5013734;28;20502;-75
2022/11/06 05:10:41;;;;;;;12.97;11.50;;;5.40;99.90;;;;;;5013028;28;20423;-75
2022/11/06 05:13:07;;;;;;;13.07;11.63;;;5.40;99.90;;;;;;5014858;28;20399;-75
2022/11/06 05:15:32;;;;;;;11.30;10.20;;;5.40;99.90;;;;;;5014033;28;20450;-75
2022/11/06 05:17:58;;;;;;;11.13;10.13;;;5.50;99.90;;;;;;5012793;28;20444;-75
2022/11/06 05:20:24;;;;;;;11.20;10.07;;;5.40;99.90;;;;;;5012987;28;20172;-75
2022/11/06 05:22:59;;;;;;;12.00;10.73;;;5.50;99.90;;;;;;5014017;28;20176;-76
2022/11/06 05:25:37;;;;;;;12.10;10.80;;;5.50;99.90;;;;;;5014647;28;20418;-76
2022/11/06 05:28:05;;;;;;;10.73;9.63;;;5.50;99.90;;;;;;5014078;28;20411;-74
2022/11/06 05:30:32;;;;;;;12.13;10.93;;;5.40;99.90;;;;;;5013870;28;20951;-74
2022/11/06 05:32:58;;;;;;;13.33;12.00;;;5.30;99.90;;;;;;5014321;28;20460;-76
2022/11/06 05:35:23;;;;;;;11.43;10.33;;;5.30;99.90;;;;;;5013799;28;20809;-76
2022/11/06 05:37:49;;;;;;;15.20;13.60;;;5.30;99.90;;;;;;5012149;28;20681;-75
2022/11/06 05:40:15;;;;;;;11.03;10.03;;;5.30;99.90;;;;;;5013739;28;20638;-75
2022/11/06 05:42:42;;;;;;;12.43;11.23;;;5.30;99.90;;;;;;5013815;28;20550;-76
2022/11/06 05:45:09;;;;;;;12.60;11.23;;;5.30;99.90;;;;;;5013625;28;20771;-76
2022/11/06 05:47:38;;;;;;;11.27;10.17;;;5.30;99.90;;;;;;5013873;28;20489;-75
2022/11/06 05:50:04;;;;;;;10.37;9.27;;;5.30;99.90;;;;;;5013821;28;20410;-75
2022/11/06 05:52:29;;;;;;;12.40;11.20;;;5.30;99.90;;;;;;5013124;28;20458;-76
2022/11/06 05:54:55;;;;;;;12.80;11.33;;;5.20;99.90;;;;;;5013734;28;20469;-76
2022/11/06 05:57:20;;;;;;;9.73;8.73;;;5.30;99.90;;;;;;5012287;28;20172;-75
2022/11/06 05:59:46;;;;;;;10.93;9.83;;;5.30;99.90;;;;;;5013492;28;20172;-76
2022/11/06 06:02:11;;;;;;;11.60;10.27;;;5.20;99.90;;;;;;5012175;28;20262;-76
2022/11/06 06:04:37;;;;;;;10.10;9.00;;;5.20;99.90;;;;;;5012133;28;20192;-76
2022/11/06 06:07:02;;;;;;;13.10;10.80;;;5.20;99.90;;;;;;5015007;28;20172;-76
2022/11/06 06:09:28;;;;;;;11.70;10.50;;;5.20;99.90;;;;;;5030804;28;20178;-76
2022/11/06 06:11:53;;;;;;;11.03;9.93;;;5.20;99.90;;;;;;5033372;28;20252;-76
2022/11/06 06:14:20;;;;;;;17.90;12.70;;;5.10;99.90;;;;;;5013773;28;20286;-76
2022/11/06 06:16:45;;;;;;;23.00;20.67;;;5.10;99.90;;;;;;5013484;28;20251;-76
2022/11/06 06:19:11;;;;;;;28.23;25.40;;;5.00;99.90;;;;;;5012360;28;20861;-76
2022/11/06 06:21:37;;;;;;;16.83;15.20;;;5.00;99.90;;;;;;5013291;28;20176;-76
2022/11/06 06:24:04;;;;;;;17.97;16.10;;;5.10;99.90;;;;;;5013191;28;20505;-76
2022/11/06 06:26:29;;;;;;;14.63;13.00;;;5.10;99.90;;;;;;5013108;28;20601;-76
2022/11/06 06:28:55;;;;;;;11.97;10.70;;;5.00;99.90;;;;;;5013201;28;20438;-76
2022/11/06 06:31:21;;;;;;;13.20;11.93;;;5.10;99.90;;;;;;5011888;28;20716;-76
2022/11/06 06:33:46;;;;;;;12.47;11.23;;;5.10;99.90;;;;;;5011750;28;20283;-76
2022/11/06 06:36:12;;;;;;;13.30;11.90;;;5.20;99.90;;;;;;5012319;28;20176;-75
2022/11/06 06:38:38;;;;;;;17.77;14.13;;;5.20;99.90;;;;;;5011076;28;20172;-75
2022/11/06 06:41:05;;;;;;;26.03;22.90;;;5.20;99.90;;;;;;5013480;28;20179;-75
2022/11/06 06:43:31;;;;;;;17.87;16.00;;;5.10;99.90;;;;;;5012957;28;20231;-76
2022/11/06 06:45:58;;;;;;;19.90;17.87;;;5.20;99.90;;;;;;5012995;28;20443;-76
2022/11/06 06:48:24;;;;;;;14.20;12.77;;;5.20;99.90;;;;;;5013031;28;20169;-75
2022/11/06 06:50:50;;;;;;;16.10;14.50;;;5.30;99.90;;;;;;5014365;28;20423;-75
2022/11/06 06:53:15;;;;;;;13.33;11.70;;;5.40;99.90;;;;;;5016147;28;20399;-76
2022/11/06 06:55:41;;;;;;;14.50;13.00;;;5.40;99.90;;;;;;5017210;28;20586;-75
2022/11/06 06:58:06;;;;;;;12.40;11.20;;;5.40;99.90;;;;;;5016842;28;20537;-75
2022/11/06 07:00:32;;;;;;;15.23;12.80;;;5.50;99.90;;;;;;5016902;28;20256;-76
2022/11/06 07:02:58;;;;;;;12.83;10.80;;;5.50;99.90;;;;;;5016428;28;20176;-75
2022/11/06 07:05:24;;;;;;;12.90;9.87;;;5.50;99.90;;;;;;5016790;28;20195;-75
2022/11/06 07:07:49;;;;;;;14.90;12.00;;;5.60;99.90;;;;;;5015898;28;20567;-76
2022/11/06 07:10:15;;;;;;;13.73;11.83;;;5.60;99.90;;;;;;5016158;28;20175;-76
2022/11/06 07:12:41;;;;;;;13.80;12.33;;;5.60;99.90;;;;;;5016303;28;20672;-75
2022/11/06 07:15:07;;;;;;;13.37;11.60;;;5.70;99.90;;;;;;5016167;28;20537;-75
2022/11/06 07:17:33;;;;;;;9.77;8.87;;;5.60;99.90;;;;;;5016275;28;20207;-76
2022/11/06 07:19:58;;;;;;;12.73;11.53;;;5.60;99.90;;;;;;5016308;28;20434;-76
2022/11/06 07:22:28;;;;;;;12.00;10.80;;;5.60;99.90;;;;;;5015764;28;20183;-76
2022/11/06 07:24:53;;;;;;;12.20;11.00;;;5.70;99.90;;;;;;5016311;28;20193;-76
2022/11/06 07:27:19;;;;;;;10.87;9.87;;;5.70;99.90;;;;;;5016333;28;20413;-75
2022/11/06 07:29:44;;;;;;;11.53;10.43;;;5.80;99.90;;;;;;5016130;28;20200;-75
2022/11/06 07:32:10;;;;;;;13.97;11.40;;;5.80;99.90;;;;;;5014804;28;20196;-75
2022/11/06 07:34:37;;;;;;;12.60;11.30;;;5.80;99.90;;;;;;5015995;28;20184;-76
2022/11/06 07:37:04;;;;;;;12.40;11.10;;;5.80;99.90;;;;;;5015078;28;20168;-75
2022/11/06 07:39:30;;;;;;;10.53;9.50;;;5.80;99.90;;;;;;5016181;28;20409;-76
2022/11/06 07:41:55;;;;;;;11.63;10.53;;;5.90;99.90;;;;;;5016154;28;20411;-77
2022/11/06 07:44:21;;;;;;;14.33;11.60;;;5.90;99.90;;;;;;5014492;28;20200;-76
2022/11/06 07:46:47;;;;;;;13.20;11.60;;;5.90;99.90;;;;;;5017075;28;20222;-75
2022/11/06 07:49:12;;;;;;;13.60;11.27;;;5.80;99.90;;;;;;5017052;28;20183;-75
2022/11/06 07:51:38;;;;;;;11.50;10.30;;;5.90;99.90;;;;;;5015722;28;20199;-76
2022/11/06 07:54:03;;;;;;;11.83;10.63;;;6.00;99.90;;;;;;5016194;28;20184;-76
2022/11/06 07:56:29;;;;;;;12.60;10.83;;;6.00;99.90;;;;;;5015499;28;20175;-76
2022/11/06 07:58:54;;;;;;;11.70;10.27;;;6.10;99.90;;;;;;5015910;28;20164;-75
2022/11/06 08:01:20;;;;;;;13.03;11.73;;;6.30;99.90;;;;;;5014932;28;20765;-75
2022/11/06 08:03:46;;;;;;;10.93;9.83;;;6.20;99.90;;;;;;5015349;28;20189;-75
2022/11/06 08:06:11;;;;;;;10.60;9.50;;;6.20;99.90;;;;;;5015171;28;20315;-75
2022/11/06 08:08:37;;;;;;;11.13;10.00;;;6.20;99.90;;;;;;5014839;28;20183;-74
2022/11/06 08:11:08;;;;;;;14.83;12.30;;;6.40;99.90;;;;;;5015077;28;20201;-75
2022/11/06 08:13:34;;;;;;;21.83;16.57;;;6.30;99.90;;;;;;5015124;28;20695;-75
2022/11/06 08:16:09;;;;;;;16.27;14.50;;;6.30;99.90;;;;;;5015347;28;20430;-76
2022/11/06 08:18:35;;;;;;;11.70;10.50;;;6.40;99.90;;;;;;5015254;28;20446;-75
2022/11/06 08:21:01;;;;;;;43.80;35.87;;;6.40;99.90;;;;;;5015199;28;20419;-75
2022/11/06 08:23:27;;;;;;;15.10;13.20;;;6.50;99.90;;;;;;5014905;28;20423;-76
2022/11/06 08:25:57;;;;;;;13.87;12.57;;;6.70;99.90;;;;;;5015331;28;20826;-75
2022/11/06 08:28:24;;;;;;;17.07;15.43;;;6.60;99.90;;;;;;5014749;28;20436;-75
2022/11/06 08:30:50;;;;;;;14.10;12.80;;;6.70;99.90;;;;;;5013414;28;20523;-75
2022/11/06 08:33:15;;;;;;;11.50;9.90;;;6.80;99.90;;;;;;5014601;28;20412;-75
2022/11/06 08:35:41;;;;;;;12.07;11.07;;;6.50;99.90;;;;;;5014889;28;20174;-76
2022/11/06 08:38:06;;;;;;;9.43;7.93;;;6.40;99.90;;;;;;5013384;28;20172;-76
2022/11/06 08:40:32;;;;;;;17.63;16.13;;;6.20;99.90;;;;;;5014516;28;20181;-76
2022/11/06 08:43:03;;;;;;;19.63;18.03;;;6.40;99.90;;;;;;5014575;28;20170;-76
2022/11/06 08:45:29;;;;;;;24.17;22.40;;;6.60;99.90;;;;;;5014514;28;20200;-76
2022/11/06 08:47:54;;;;;;;9.97;9.00;;;6.60;99.90;;;;;;5011788;28;20945;-76
2022/11/06 08:50:20;;;;;;;11.03;9.93;;;6.30;99.90;;;;;;5014568;28;20643;-75
2022/11/06 08:52:46;;;;;;;9.33;8.43;;;6.40;99.90;;;;;;5014105;28;20200;-76
2022/11/06 08:55:11;;;;;;;8.87;7.97;;;6.40;99.90;;;;;;5015055;28;20184;-76
2022/11/06 08:57:37;;;;;;;8.30;7.33;;;6.40;99.90;;;;;;5015515;28;20173;-75
2022/11/06 09:00:03;;;;;;;8.87;8.07;;;6.60;99.90;;;;;;5019525;28;20170;-76
2022/11/06 09:02:29;;;;;;;9.20;8.17;;;6.50;99.90;;;;;;5026274;28;20179;-75
2022/11/06 09:04:54;;;;;;;10.30;9.30;;;6.50;99.90;;;;;;5034322;28;20493;-75
2022/11/06 09:07:20;;;;;;;9.20;8.37;;;6.60;99.90;;;;;;5034404;28;20175;-75
2022/11/06 09:09:45;;;;;;;9.03;8.17;;;6.80;99.90;;;;;;5033514;28;20173;-77
2022/11/06 09:12:11;;;;;;;9.50;8.50;;;7.00;99.90;;;;;;5032828;28;20667;-75
2022/11/06 09:14:38;;;;;;;10.27;8.43;;;7.00;99.90;;;;;;5040075;22;20233;-72
2022/11/06 09:17:04;;;;;;;8.83;7.93;;;7.20;99.90;;;;;;4994501;28;20557;-72
2022/11/06 09:19:30;;;;;;;16.60;9.20;;;7.30;99.90;;;;;;4994311;28;20395;-71
2022/11/06 09:21:55;;;;;;;9.73;8.73;;;7.40;99.90;;;;;;4993887;28;20175;-71
2022/11/06 09:24:21;;;;;;;11.00;9.33;;;7.50;99.90;;;;;;4994114;28;20191;-70
2022/11/06 09:26:46;;;;;;;10.80;9.70;;;7.40;99.90;;;;;;4994649;28;20269;-71
2022/11/06 09:29:12;;;;;;;9.13;8.23;;;7.40;99.90;;;;;;4994201;28;20177;-71
2022/11/06 09:31:37;;;;;;;10.47;9.47;;;7.40;99.90;;;;;;4994349;28;20203;-71
2022/11/06 09:34:03;;;;;;;10.27;9.17;;;7.40;99.90;;;;;;4993992;28;20190;-70
2022/11/06 09:36:28;;;;;;;9.80;8.80;;;7.50;99.90;;;;;;4993205;28;20216;-69
2022/11/06 09:38:54;;;;;;;9.73;8.73;;;7.80;99.90;;;;;;4993708;28;20173;-70
2022/11/06 09:41:48;;;;;;;12.73;9.57;;;8.10;99.90;;;;;;4993900;28;20177;-70
2022/11/06 09:44:42;;;;;;;10.30;9.30;;;8.40;99.90;;;;;;4994345;28;20189;-70
2022/11/06 09:47:18;;;;;;;10.63;8.80;;;8.40;99.90;;;;;;4994110;28;20422;-70
2022/11/06 09:49:51;;;;;;;9.37;8.47;;;8.40;99.90;;;;;;4994029;28;20391;-71
2022/11/06 09:52:24;;;;;;;8.37;7.60;;;8.50;99.90;;;;;;4993444;28;20508;-72
2022/11/06 09:55:00;;;;;;;10.70;8.50;;;8.60;99.90;;;;;;4994108;28;20433;-70
2022/11/06 09:57:41;;;;;;;9.23;8.30;;;8.80;99.90;;;;;;4992508;28;20419;-71
2022/11/06 10:00:11;;;;;;;9.37;8.47;;;9.20;99.90;;;;;;4994238;28;20388;-71
2022/11/06 10:02:51;;;;;;;8.70;7.80;;;9.40;99.90;;;;;;4993999;28;20513;-70
2022/11/06 10:05:26;;;;;;;10.20;9.20;;;9.60;99.90;;;;;;4993700;28;20432;-72
2022/11/06 10:08:28;;;;;;;8.83;7.93;;;9.70;99.90;;;;;;4993250;28;20415;-72
2022/11/06 10:11:00;;;;;;;9.33;8.37;;;9.80;99.90;;;;;;4986955;28;20437;-71
2022/11/06 10:13:54;;;;;;;9.13;8.17;;;10.10;99.90;;;;;;4993749;28;20509;-70
2022/11/06 10:16:48;;;;;;;9.00;8.00;;;10.10;99.90;;;;;;4994092;28;20406;-71
2022/11/06 10:19:36;;;;;;;8.80;7.90;;;9.90;99.90;;;;;;4993170;28;20511;-71
2022/11/06 10:22:21;;;;;;;10.83;9.77;;;10.20;99.90;;;;;;4993915;28;20392;-70
2022/11/06 10:25:12;;;;;;;9.40;8.43;;;10.20;99.90;;;;;;4996640;28;20473;-71
2022/11/06 10:27:49;;;;;;;10.50;9.50;;;10.50;99.90;;;;;;4997986;28;20411;-71
2022/11/06 10:30:17;;;;;;;10.10;9.10;;;10.60;99.90;;;;;;4998319;28;20884;-71
2022/11/06 10:33:18;;;;;;;10.17;9.17;;;10.90;99.90;;;;;;4997945;28;20455;-69
2022/11/06 10:35:57;;;;;;;8.60;7.70;;;11.50;99.90;;;;;;4997810;28;20559;-71
2022/11/06 10:38:31;;;;;;;6.47;5.87;;;11.80;99.90;;;;;;4996599;28;20419;-71
2022/11/06 10:40:57;;;;;;;7.60;6.90;;;11.50;99.90;;;;;;4997420;28;20495;-71
2022/11/06 10:43:34;;;;;;;8.10;7.30;;;11.50;99.90;;;;;;4997501;28;20895;-72
2022/11/06 10:46:08;;;;;;;9.13;8.23;;;11.90;99.90;;;;;;4997736;28;20164;-71
2022/11/06 10:48:42;;;;;;;9.90;8.30;;;12.20;99.90;;;;;;4997570;28;20390;-71
2022/11/06 10:51:19;;;;;;;10.87;9.77;;;12.90;99.90;;;;;;4996993;28;20446;-72
2022/11/06 10:54:02;;;;;;;9.33;8.10;;;12.60;99.90;;;;;;4996940;28;20978;-72
2022/11/06 10:56:38;;;;;;;9.30;8.30;;;12.90;99.90;;;;;;4996656;28;20466;-71
2022/11/06 10:59:04;;;;;;;10.67;9.60;;;12.70;99.90;;;;;;4995750;28;20410;-70
2022/11/06 11:01:29;;;;;;;8.83;7.93;;;13.00;99.90;;;;;;4997121;28;20782;-71
2022/11/06 11:03:55;;;;;;;9.53;7.87;;;13.20;99.90;;;;;;4996760;28;20841;-71
2022/11/06 11:06:20;;;;;;;7.70;7.00;;;13.90;99.90;;;;;;4996593;28;20239;-71
2022/11/06 11:08:48;;;;;;;5.53;5.03;;;14.00;99.90;;;;;;4996626;28;20188;-71
2022/11/06 11:11:19;;;;;;;5.60;4.47;;;13.70;99.90;;;;;;4997068;28;20202;-70
2022/11/06 11:14:09;;;;;;;4.93;4.50;;;13.70;99.90;;;;;;4996830;28;20389;-70
2022/11/06 11:16:38;;;;;;;5.93;5.40;;;13.90;99.90;;;;;;4991040;28;20430;-71
2022/11/06 11:19:22;;;;;;;6.00;5.00;;;13.90;99.90;;;;;;4996919;28;20412;-71
2022/11/06 11:22:02;;;;;;;6.10;5.60;;;14.30;99.90;;;;;;4996551;28;20411;-70
2022/11/06 11:24:28;;;;;;;5.93;5.30;;;13.80;99.90;;;;;;4996374;28;20924;-71
2022/11/06 11:27:01;;;;;;;6.23;5.63;;;13.50;99.90;;;;;;4996509;28;20476;-69
2022/11/06 11:29:33;;;;;;;5.57;5.07;;;13.70;99.90;;;;;;4996950;28;20187;-70
2022/11/06 11:32:05;;;;;;;5.50;5.00;;;14.50;99.90;;;;;;4996599;28;20439;-70
2022/11/06 11:34:35;;;;;;;5.57;5.07;;;15.10;99.90;;;;;;4996468;28;20488;-73
2022/11/06 11:37:03;;;;;;;5.47;4.97;;;15.70;99.90;;;;;;4994340;28;20788;-71
2022/11/06 11:39:34;;;;;;;5.70;5.20;;;16.10;99.90;;;;;;4996199;28;20495;-70
2022/11/06 11:42:16;;;;;;;5.53;5.03;;;15.60;99.90;;;;;;4996551;28;20389;-72
2022/11/06 11:44:42;;;;;;;5.97;5.40;;;15.40;99.90;;;;;;4996272;28;20445;-72
2022/11/06 11:47:23;;;;;;;5.93;5.10;;;15.20;99.90;;;;;;4996489;28;20419;-72
2022/11/06 11:49:49;;;;;;;5.33;4.83;;;15.80;99.90;;;;;;4996033;28;20414;-70
2022/11/06 11:52:20;;;;;;;5.80;5.30;;;16.50;99.90;;;;;;4996992;28;20802;-71
2022/11/06 11:54:55;;;;;;;5.20;4.70;;;16.30;99.90;;;;;;5006892;28;20208;-71
2022/11/06 11:57:24;;;;;;;5.20;4.70;;;16.90;99.90;;;;;;5014305;28;20407;-70
2022/11/06 12:00:05;;;;;;;5.50;5.00;;;18.10;99.90;;;;;;5015775;28;20481;-71
2022/11/06 12:02:39;;;;;;;5.90;5.40;;;18.10;98.50;;;;;;5015481;28;20391;-70
2022/11/06 12:05:11;;;;;;;5.20;4.80;;;17.90;99.40;;;;;;5015303;28;20517;-71
2022/11/06 12:07:43;;;;;;;4.43;4.03;;;17.70;99.20;;;;;;5004309;28;20423;-71
2022/11/06 12:10:34;;;;;;;4.03;3.73;;;18.50;98.80;;;;;;4996153;28;20494;-72
2022/11/06 12:13:05;;;;;;;4.33;3.90;;;19.20;97.30;;;;;;4996218;28;20992;-72
2022/11/06 12:15:49;;;;;;;5.20;4.73;;;20.10;95.80;;;;;;4995286;28;20554;-71
2022/11/06 12:18:21;;;;;;;4.70;4.30;;;20.80;94.90;;;;;;4995882;28;20751;-70
2022/11/06 12:20:53;;;;;;;4.80;4.30;;;20.40;94.50;;;;;;4994169;28;20789;-71
2022/11/06 12:23:35;;;;;;;4.77;4.37;;;20.60;94.80;;;;;;4995097;28;20475;-72
2022/11/06 12:26:05;;;;;;;4.70;4.30;;;20.90;94.50;;;;;;4995700;28;20411;-70
2022/11/06 12:28:35;;;;;;;4.43;3.83;;;20.80;94.10;;;;;;4995581;28;20899;-71
2022/11/06 12:31:08;;;;;;;4.80;4.33;;;21.50;93.10;;;;;;4995333;28;20411;-71
2022/11/06 12:33:39;;;;;;;4.67;4.27;;;21.50;92.80;;;;;;4995506;28;20396;-71
2022/11/06 12:36:09;;;;;;;5.07;4.57;;;21.20;92.90;;;;;;4995324;28;20807;-71
2022/11/06 12:38:40;;;;;;;4.50;4.10;;;20.80;92.90;;;;;;4994125;28;20793;-72
2022/11/06 12:41:20;;;;;;;4.70;4.30;;;20.90;92.90;;;;;;4995243;28;20404;-71
2022/11/06 12:43:48;;;;;;;5.20;4.70;;;21.30;92.60;;;;;;4995525;28;20881;-71
2022/11/06 12:46:32;;;;;;;4.23;3.83;;;20.60;93.00;;;;;;4994983;28;20814;-70
2022/11/06 12:49:09;;;;;;;5.43;4.93;;;20.50;92.50;;;;;;4995110;28;20400;-72
2022/11/06 12:51:47;;;;;;;6.13;5.47;;;20.10;93.70;;;;;;4994517;28;20458;-71
2022/11/06 12:54:30;;;;;;;5.17;4.77;;;18.70;94.00;;;;;;4994612;28;20427;-71
2022/11/06 12:57:19;;;;;;;5.10;4.70;;;18.10;95.70;;;;;;4995160;28;20527;-69
2022/11/06 13:00:00;;;;;;;5.70;5.10;;;17.70;96.50;;;;;;4995064;28;20519;-71
2022/11/06 13:02:57;;;;;;;4.90;4.50;;;17.20;97.60;;;;;;4993423;28;20431;-72
2022/11/06 13:05:43;;;;;;;6.07;5.47;;;17.20;98.50;;;;;;4994106;28;20798;-71
2022/11/06 13:08:15;;;;;;;5.70;5.20;;;16.70;98.90;;;;;;4994676;28;20411;-72
2022/11/06 13:11:32;;;;;;;6.50;5.90;;;16.40;99.90;;;;;;4994456;28;20418;-70
2022/11/06 13:14:20;;;;;;;5.60;5.10;;;16.50;99.90;;;;;;4969254;28;20467;-70
2022/11/06 13:17:05;;;;;;;5.87;5.40;;;16.20;99.90;;;;;;4994099;28;20890;-72
2022/11/06 13:19:51;;;;;;;6.40;5.80;;;16.20;99.90;;;;;;4994226;28;20416;-71